KATY

Watertown Regional Airport

Watertown, South Dakota, USA
METAR KATY 182153Z AUTO 07010KT 10SM OVC046 22/15 A3000 RMK AO2 SLP152 T02170150
Observed Flight Rules
Jun-18 @ 21:53 UTC (48 minutes ago) Visual Flight Rules
Wind Visibility Clouds
70° at 10 knots 10 miles
  • Overcast at 4,600' AGL
Temperatures Readings
Current 22°C / 72°F
Dewpoint 15°C / 59°F
Humidity 65%
Altimeter 30" Hg
Pressure 1015.2 hPa
Elevation 532
METAR KATY 182153Z AUTO 07010KT 10SM OVC046 22/15 A3000 RMK AO2 SLP152 T02170150
Observed Flight Rules
Jun-18 @ 21:53 UTC
(48 minutes ago)
VFR
Wind Visibility
70° at 10 knots 10 miles
Clouds
  • Overcast at 4,600' AGL
Temperature Dewpoint
22°C / 72°F 15°C / 59°F
Humidity Altimeter Pressure
65% 30" Hg 1015.2 hPa